Terminal Aerodrome Forecast
Issued by NWS Atlanta, GA

Home | Current Version | Previous Version | Text Only | Print | Product List | Glossary On
Versions: 1 2 3 4 5 6 7 8 9 10 11 12
000
FTUS42 KFFC 050522
TAFCSG
TAF
KCSG 050522Z 0506/0606 08003KT P6SM SKC
     FM050700 00000KT P6SM SKC
     FM051500 12006KT P6SM SKC
     FM060300 00000KT P6SM FEW250=

USA.gov is the U.S. government's official web portal to all federal, state and local government web resources and services.